Campanya meteocatpedra

Dades EMA Montsec d'Ares (1.572 m)

?
?
Resum diari
Dades diàries de l'estació meteorològica
Temperatura mitjana 4.3 °C
Temperatura màxima 7.2 °C 14:33 TU
Temperatura mínima 1.5 °C 6:04 TU
Humitat relativa mitjana 58%
Precipitació acumulada 0.0 mm
Ratxa màxima del vent (10 m) 16.9 km/h - 191º 12:49 TU
Irradiació solar global 9.9 MJ/m2

El tram horari està expressat en Temps Universal (TU). Cal sumar una hora en horari d'hivern i dues en horari d'estiu per passar a l'hora oficial.

Montsec d'Ares (1.572 m)

Metadades estació meteorol´gica
Municipi Sant Esteve de la Sarga
Comarca Pallars Jussà
Altitud 1572 m
Data alta 17.06.2003
Estat actual Operativa
Dades de període
Període
TU
TM
°C
TX
°C
TN
°C
HRM
%
PPT
mm
VVM (10 m)
km/h
DVM (10 m)
graus
VVX (10 m)
km/h
PM
hPa
RS
W/m2
00:00 - 00:30 2.6 3.0 1.9 74 0.0 6.8 126 9.4 863.0 0
00:30 - 01:00 2.8 2.9 2.7 63 0.0 9.4 144 12.2 862.9 0
01:00 - 01:30 2.8 2.9 2.7 65 0.0 7.2 168 9.7 862.8 0
01:30 - 02:00 2.8 3.0 2.7 61 0.0 5.0 174 7.9 862.9 0
02:00 - 02:30 2.8 2.8 2.7 61 0.0 1.8 168 5.4 862.9 0
02:30 - 03:00 2.6 3.2 2.4 53 0.0 0.0 0 0.0 862.8 0
03:00 - 03:30 3.1 3.4 1.6 52 0.0 1.1 12 6.5 862.7 0
03:30 - 04:00 2.3 3.0 1.5 59 0.0 1.1 11 5.4 862.7 0
04:00 - 04:30 2.9 3.2 2.7 51 0.0 3.2 16 4.7 862.7 0
04:30 - 05:00 3.0 3.2 2.7 69 0.0 2.2 10 4.7 862.6 0
05:00 - 05:30 2.6 2.7 2.2 66 0.0 1.8 200 7.2 862.5 0
05:30 - 06:00 1.9 2.2 1.6 67 0.0 6.1 220 7.2 862.8 0
06:00 - 06:30 1.9 2.5 1.5 66 0.0 2.2 242 6.1 862.9 0
06:30 - 07:00 2.6 2.7 2.3 52 0.0 0.0 0 0.0 863.0 0
07:00 - 07:30 2.6 3.3 2.2 52 0.0 0.0 0 0.0 863.3 11
07:30 - 08:00 3.4 3.7 3.1 50 0.0 2.5 40 5.0 863.5 67
08:00 - 08:30 5.0 5.6 3.7 56 0.0 0.7 99 6.1 863.7 119
08:30 - 09:00 5.1 5.3 5.0 67 0.0 1.8 160 7.6 863.9 231
09:00 - 09:30 4.9 5.3 4.4 70 0.0 2.2 187 9.0 864.0 304
09:30 - 10:00 5.3 5.6 5.1 71 0.0 3.6 206 10.1 864.2 369
10:00 - 10:30 5.6 6.3 4.6 70 0.0 1.4 229 10.1 864.3 421
10:30 - 11:00 6.1 6.8 4.7 68 0.0 3.2 225 12.2 864.2 461
11:00 - 11:30 6.6 7.1 6.1 66 0.0 4.3 196 11.2 864.0 481
11:30 - 12:00 6.0 6.3 5.6 68 0.0 4.7 208 14.4 863.9 493
12:00 - 12:30 6.0 6.5 5.5 69 0.0 6.1 210 15.5 863.6 499
12:30 - 13:00 5.9 6.3 5.6 69 0.0 6.1 197 16.9 863.5 470
13:00 - 13:30 6.1 6.5 5.6 69 0.0 4.3 217 13.7 863.2 424
13:30 - 14:00 6.2 6.6 5.7 69 0.0 6.1 210 12.6 863.1 375
14:00 - 14:30 6.3 6.9 5.8 69 0.0 5.0 226 13.3 863.2 313
14:30 - 15:00 6.4 7.2 6.1 70 0.0 5.8 219 12.2 863.2 241
15:00 - 15:30 6.0 6.4 5.4 70 0.0 2.2 215 9.0 863.1 127
15:30 - 16:00 5.3 6.1 4.7 71 0.0 0.7 195 5.4 863.3 72
16:00 - 16:30 4.2 4.6 3.9 76 0.0 4.3 65 7.6 863.3 18
16:30 - 17:00 3.5 3.8 3.1 75 0.0 8.6 103 11.2 863.4 0
17:00 - 17:30 3.5 3.8 3.1 53 0.0 9.4 112 13.7 863.4 0
17:30 - 18:00 3.4 3.7 3.2 48 0.0 10.8 114 14.4 863.5 0
18:00 - 18:30 3.9 4.0 3.6 47 0.0 10.8 142 14.8 863.6 0
18:30 - 19:00 3.7 3.8 3.4 50 0.0 10.4 150 14.0 863.9 0
19:00 - 19:30 3.4 3.7 3.3 47 0.0 6.1 117 12.2 864.1 0
19:30 - 20:00 3.8 4.2 3.3 44 0.0 8.6 127 11.2 864.1 0
20:00 - 20:30 4.0 4.3 3.8 43 0.0 9.7 135 12.2 864.1 0
20:30 - 21:00 4.5 5.1 4.3 41 0.0 8.6 150 11.2 864.1 0
21:00 - 21:30 5.3 5.5 5.2 35 0.0 8.3 158 10.8 864.2 0
21:30 - 22:00 5.3 5.4 5.1 35 0.0 9.0 152 11.9 864.3 0
22:00 - 22:30 5.2 5.3 5.1 36 0.0 9.7 146 11.9 864.4 0
22:30 - 23:00 5.3 5.4 5.1 34 0.0 8.3 151 11.5 864.3 0
23:00 - 23:30 5.1 5.2 4.9 38 0.0 10.1 157 11.2 864.2 0
23:30 - 00:00 5.2 5.4 5.1 34 0.0 8.3 148 10.1 864.1 0

Les dades en taronja només han passat un control de qualitat automàtic. Resta pendent la seva validació definitiva.